createdAt,value
2018-07-20T00:00:13.811Z,18.64
2018-07-20T00:02:42.758Z,18.61
2018-07-20T00:05:11.753Z,18.58
2018-07-20T00:07:40.995Z,18.55
2018-07-20T00:10:09.843Z,18.51
2018-07-20T00:12:38.857Z,18.50
2018-07-20T00:15:08.394Z,18.52
2018-07-20T00:17:37.471Z,18.46
2018-07-20T00:20:06.607Z,18.40
2018-07-20T00:22:36.274Z,18.45
2018-07-20T00:25:05.376Z,18.45
2018-07-20T00:27:34.362Z,18.47
2018-07-20T00:30:03.291Z,18.46
2018-07-20T00:32:32.449Z,18.47
2018-07-20T00:35:02.313Z,18.49
2018-07-20T00:37:31.587Z,18.48
2018-07-20T00:40:00.463Z,18.58
2018-07-20T00:42:29.776Z,18.63
2018-07-20T00:44:58.634Z,18.76
2018-07-20T00:47:27.437Z,18.87
2018-07-20T00:49:56.248Z,18.86
2018-07-20T00:52:26.678Z,18.97
2018-07-20T00:54:55.871Z,19.02
2018-07-20T00:57:24.943Z,19.08
2018-07-20T00:59:53.614Z,19.11
2018-07-20T01:02:22.656Z,19.15
2018-07-20T01:04:51.745Z,19.18
2018-07-20T01:07:21.393Z,19.23
2018-07-20T01:09:51.469Z,19.27
2018-07-20T01:12:20.238Z,19.28
2018-07-20T01:14:49.767Z,19.26
2018-07-20T01:17:18.759Z,19.36
2018-07-20T01:19:47.618Z,19.33
2018-07-20T01:22:16.779Z,19.37
2018-07-20T01:24:46.432Z,19.40
2018-07-20T01:29:46.271Z,19.39
2018-07-20T01:32:15.215Z,19.37
2018-07-20T01:34:44.179Z,19.36
2018-07-20T01:37:13.687Z,19.29
2018-07-20T01:39:42.683Z,19.38
2018-07-20T01:42:12.606Z,19.37
2018-07-20T01:44:42.142Z,19.43
2018-07-20T01:47:11.246Z,19.39
2018-07-20T01:49:40.286Z,19.37
2018-07-20T01:52:09.567Z,19.31
2018-07-20T01:54:38.763Z,19.41
2018-07-20T01:57:07.791Z,19.36
2018-07-20T01:59:36.698Z,19.43
2018-07-20T02:02:05.511Z,19.44
2018-07-20T02:04:34.620Z,19.52
2018-07-20T02:07:03.772Z,19.51
2018-07-20T02:09:33.062Z,19.48
2018-07-20T02:12:02.141Z,19.48
2018-07-20T02:14:31.348Z,19.49
2018-07-20T02:17:00.857Z,19.51
2018-07-20T02:19:31.093Z,19.45
2018-07-20T02:22:00.609Z,19.54
2018-07-20T02:24:29.589Z,19.58
2018-07-20T02:26:58.872Z,19.46
2018-07-20T02:29:28.164Z,19.48
2018-07-20T02:31:57.080Z,19.43
2018-07-20T02:34:26.275Z,19.45
2018-07-20T02:36:55.519Z,19.47
2018-07-20T02:39:24.658Z,19.46
2018-07-20T02:41:54.203Z,19.34
2018-07-20T02:44:23.862Z,19.37
2018-07-20T02:46:52.704Z,19.31
2018-07-20T02:49:22.620Z,19.29
2018-07-20T02:51:52.132Z,19.33
2018-07-20T02:54:21.267Z,19.33
2018-07-20T02:56:50.196Z,19.28
2018-07-20T02:59:19.775Z,19.27
2018-07-20T03:01:48.618Z,19.28
2018-07-20T03:04:17.563Z,19.13
2018-07-20T03:06:46.647Z,19.12
2018-07-20T03:09:15.577Z,19.18
2018-07-20T03:11:44.718Z,19.18
2018-07-20T03:14:14.659Z,19.18
2018-07-20T03:16:43.616Z,19.17
2018-07-20T03:19:12.475Z,19.21
2018-07-20T03:21:42.123Z,19.21
2018-07-20T03:24:11.809Z,19.14
2018-07-20T03:26:40.905Z,19.12
2018-07-20T03:29:09.959Z,19.14
2018-07-20T03:31:39.142Z,19.32
2018-07-20T03:34:07.900Z,19.29
2018-07-20T03:36:37.500Z,19.36
2018-07-20T03:39:08.639Z,19.45
2018-07-20T03:41:38.571Z,19.57
2018-07-20T03:44:08.239Z,19.71
2018-07-20T03:46:37.715Z,19.72
2018-07-20T03:49:07.453Z,19.81
2018-07-20T03:51:36.379Z,19.91
2018-07-20T03:54:05.211Z,19.96
2018-07-20T03:56:34.731Z,20.11
2018-07-20T03:59:04.435Z,20.16
2018-07-20T04:01:34.029Z,20.19
2018-07-20T04:04:03.222Z,20.29
2018-07-20T04:06:32.303Z,20.38
2018-07-20T04:09:01.497Z,20.50
2018-07-20T04:11:31.223Z,20.59
2018-07-20T04:14:00.494Z,20.71
2018-07-20T04:16:30.453Z,20.84
2018-07-20T04:19:00.476Z,21.02
2018-07-20T04:21:30.496Z,21.45
2018-07-20T04:24:00.016Z,22.09
2018-07-20T04:26:29.602Z,22.67
2018-07-20T04:28:58.984Z,22.99
2018-07-20T04:31:27.885Z,22.92
2018-07-20T04:33:56.998Z,23.16
2018-07-20T04:36:26.134Z,23.13
2018-07-20T04:38:55.158Z,22.97
2018-07-20T04:41:24.573Z,22.79
2018-07-20T04:43:54.132Z,22.93
2018-07-20T04:46:23.482Z,22.90
2018-07-20T04:48:53.010Z,22.68
2018-07-20T04:51:22.203Z,22.45
2018-07-20T04:53:52.123Z,22.26
2018-07-20T04:56:21.027Z,22.09
2018-07-20T04:58:52.578Z,21.89
2018-07-20T05:01:21.336Z,21.74
2018-07-20T05:03:51.295Z,21.52
2018-07-20T05:06:20.129Z,21.55
2018-07-20T05:08:49.796Z,21.57
2018-07-20T05:11:19.564Z,21.60
2018-07-20T05:13:48.680Z,21.86
2018-07-20T05:16:20.143Z,22.11
2018-07-20T05:18:49.302Z,22.22
2018-07-20T05:21:18.424Z,22.36
2018-07-20T05:23:47.810Z,22.43
2018-07-20T05:26:17.134Z,22.88
2018-07-20T05:28:46.050Z,23.43
2018-07-20T05:31:15.489Z,24.10
2018-07-20T05:33:45.400Z,24.42
2018-07-20T05:36:15.049Z,24.53
2018-07-20T05:38:44.995Z,24.76
2018-07-20T05:41:14.563Z,25.09
2018-07-20T05:43:44.610Z,25.31
2018-07-20T05:46:15.042Z,25.28
2018-07-20T05:48:44.285Z,25.93
2018-07-20T05:51:13.695Z,26.37
2018-07-20T05:53:42.858Z,26.17
2018-07-20T05:56:12.037Z,26.43
2018-07-20T05:58:41.683Z,26.72
2018-07-20T06:01:10.417Z,26.79
2018-07-20T06:03:39.736Z,26.58
2018-07-20T06:06:08.454Z,25.88
2018-07-20T06:08:37.375Z,25.70
2018-07-20T06:11:06.912Z,25.63
2018-07-20T06:13:36.157Z,25.41
2018-07-20T06:16:06.011Z,25.54
2018-07-20T06:18:35.549Z,25.77
2018-07-20T06:21:04.741Z,25.68
2018-07-20T06:23:34.067Z,26.32
2018-07-20T06:26:03.204Z,26.53
2018-07-20T06:28:33.055Z,26.56
2018-07-20T06:31:02.066Z,26.69
2018-07-20T06:33:31.044Z,26.53
2018-07-20T06:36:00.498Z,25.76
2018-07-20T06:38:29.654Z,25.68
2018-07-20T06:40:58.285Z,25.22
2018-07-20T06:43:27.829Z,24.98
2018-07-20T06:45:56.904Z,24.74
2018-07-20T06:48:26.304Z,24.87
2018-07-20T06:50:56.907Z,25.12
2018-07-20T06:53:25.671Z,25.52
2018-07-20T06:55:54.655Z,26.10
2018-07-20T06:58:23.678Z,26.48
2018-07-20T07:00:53.363Z,27.02
2018-07-20T07:03:22.557Z,28.01
2018-07-20T07:05:51.854Z,28.81
2018-07-20T07:08:20.972Z,29.73
2018-07-20T07:10:50.176Z,30.18
2018-07-20T07:13:20.272Z,29.17
2018-07-20T07:15:49.175Z,28.61
2018-07-20T07:18:18.378Z,28.39
2018-07-20T07:20:47.380Z,28.95
2018-07-20T07:23:16.471Z,28.60
2018-07-20T07:25:45.570Z,28.21
2018-07-20T07:28:14.795Z,28.46
2018-07-20T07:30:43.868Z,28.08
2018-07-20T07:33:12.957Z,27.95
2018-07-20T07:35:42.486Z,27.24
2018-07-20T07:38:11.438Z,27.18
2018-07-20T07:40:43.682Z,26.29
2018-07-20T07:43:13.104Z,26.08
2018-07-20T07:45:42.363Z,26.01
2018-07-20T07:48:11.759Z,26.40
2018-07-20T07:50:40.737Z,26.76
2018-07-20T07:53:10.454Z,27.29
2018-07-20T07:55:39.596Z,27.60
2018-07-20T07:58:09.894Z,27.99
2018-07-20T08:00:39.274Z,28.08
2018-07-20T08:03:09.807Z,28.69
2018-07-20T08:05:40.216Z,29.53
2018-07-20T08:08:10.676Z,28.61
2018-07-20T08:10:39.662Z,29.75
2018-07-20T08:13:08.595Z,29.94
2018-07-20T08:15:39.673Z,30.37
2018-07-20T08:18:09.488Z,30.60
2018-07-20T08:20:38.748Z,30.80
2018-07-20T08:23:08.478Z,30.32
2018-07-20T08:25:37.915Z,29.10
2018-07-20T08:28:07.385Z,28.35
2018-07-20T08:30:37.159Z,28.00
2018-07-20T08:33:06.712Z,27.69
2018-07-20T08:35:36.470Z,27.64
2018-07-20T08:38:05.650Z,27.70
2018-07-20T08:40:34.535Z,27.81
2018-07-20T08:43:03.723Z,28.26
2018-07-20T08:45:33.153Z,28.20
2018-07-20T08:48:02.425Z,28.22
2018-07-20T08:50:31.419Z,28.45
2018-07-20T08:53:00.658Z,27.99
2018-07-20T08:55:29.790Z,27.98
2018-07-20T08:57:59.386Z,28.27
2018-07-20T09:00:28.458Z,29.11
2018-07-20T09:02:57.400Z,29.07
2018-07-20T09:05:26.400Z,29.53
2018-07-20T09:07:55.474Z,29.23
2018-07-20T09:10:24.511Z,28.97
2018-07-20T09:12:53.581Z,28.23
2018-07-20T09:15:22.919Z,27.62
2018-07-20T09:17:51.850Z,27.38
2018-07-20T09:20:20.887Z,27.93
2018-07-20T09:22:50.222Z,28.65
2018-07-20T09:25:19.186Z,28.89
2018-07-20T09:27:48.178Z,28.33
2018-07-20T09:30:17.720Z,28.45
2018-07-20T09:32:46.653Z,28.52
2018-07-20T09:35:16.184Z,28.52
2018-07-20T09:37:45.601Z,28.37
2018-07-20T09:40:15.194Z,29.08
2018-07-20T09:42:44.635Z,28.40
2018-07-20T09:45:14.123Z,28.43
2018-07-20T09:47:43.082Z,29.25
2018-07-20T09:50:12.122Z,29.60
2018-07-20T09:52:41.509Z,30.34
2018-07-20T09:55:10.498Z,29.92
2018-07-20T09:57:39.490Z,29.27
2018-07-20T10:00:09.415Z,29.16
2018-07-20T10:02:38.267Z,29.16
2018-07-20T10:05:07.370Z,29.23
2018-07-20T10:07:36.601Z,29.07
2018-07-20T10:10:05.504Z,28.93
2018-07-20T10:12:34.550Z,28.99
2018-07-20T10:15:03.702Z,29.08
2018-07-20T10:17:32.550Z,28.71
2018-07-20T10:20:01.878Z,28.13
2018-07-20T10:22:31.070Z,28.17
2018-07-20T10:25:00.072Z,28.25
2018-07-20T10:27:29.255Z,27.96
2018-07-20T10:29:58.521Z,27.94
2018-07-20T10:32:27.757Z,27.98
2018-07-20T10:34:56.832Z,28.29
2018-07-20T10:37:25.874Z,27.74
2018-07-20T10:39:55.051Z,28.19
2018-07-20T10:42:23.950Z,28.04
2018-07-20T10:44:53.541Z,28.21
2018-07-20T10:47:22.551Z,28.61
2018-07-20T10:49:51.549Z,28.11
2018-07-20T10:52:20.506Z,28.32
2018-07-20T10:54:49.210Z,28.17
2018-07-20T10:57:18.041Z,28.24
2018-07-20T10:59:47.474Z,28.18
2018-07-20T11:02:16.783Z,28.01
2018-07-20T11:04:46.224Z,27.63
2018-07-20T11:07:15.186Z,27.27
2018-07-20T11:09:44.212Z,27.27
2018-07-20T11:12:13.287Z,27.31
2018-07-20T11:14:42.867Z,27.28
2018-07-20T11:17:11.707Z,27.53
2018-07-20T11:19:40.608Z,27.73
2018-07-20T11:22:10.446Z,27.82
2018-07-20T11:24:39.536Z,27.07
2018-07-20T11:27:08.306Z,26.67
2018-07-20T11:29:37.326Z,26.58
2018-07-20T11:32:06.201Z,26.72
2018-07-20T11:34:35.201Z,26.48
2018-07-20T11:37:04.301Z,26.61
2018-07-20T11:39:33.308Z,26.67
2018-07-20T11:42:02.586Z,26.80
2018-07-20T11:44:32.444Z,26.98
2018-07-20T11:47:02.014Z,27.09
2018-07-20T11:49:32.054Z,27.17
2018-07-20T11:52:01.263Z,26.85
2018-07-20T11:54:30.444Z,26.94
2018-07-20T11:57:00.347Z,26.94
2018-07-20T11:59:30.168Z,27.05
2018-07-20T12:01:59.344Z,27.02
2018-07-20T12:04:28.542Z,27.15
2018-07-20T12:06:57.667Z,26.98
2018-07-20T12:09:26.729Z,26.63
2018-07-20T12:11:55.624Z,26.70
2018-07-20T12:14:24.958Z,26.78
2018-07-20T12:16:54.039Z,26.58
2018-07-20T12:19:23.078Z,26.56
2018-07-20T12:21:52.173Z,26.57
2018-07-20T12:24:21.214Z,26.78
2018-07-20T12:26:50.015Z,26.67
2018-07-20T12:29:19.245Z,26.87
2018-07-20T12:31:48.305Z,27.03
2018-07-20T12:34:16.994Z,27.26
2018-07-20T12:36:46.214Z,27.36
2018-07-20T12:39:15.595Z,27.08
2018-07-20T12:41:44.446Z,26.89
2018-07-20T12:44:13.990Z,26.82
2018-07-20T12:46:43.111Z,26.90
2018-07-20T12:49:12.205Z,26.91
2018-07-20T12:51:41.417Z,27.07
2018-07-20T12:54:10.560Z,27.26
2018-07-20T12:56:40.303Z,27.29
2018-07-20T12:59:09.507Z,27.53
2018-07-20T13:01:38.370Z,27.57
2018-07-20T13:04:07.335Z,27.48
2018-07-20T13:06:37.492Z,27.73
2018-07-20T13:09:10.448Z,27.35
2018-07-20T13:11:39.865Z,27.27
2018-07-20T13:14:09.600Z,26.96
2018-07-20T13:16:39.741Z,27.02
2018-07-20T13:19:09.740Z,27.10
2018-07-20T13:21:45.674Z,27.20
2018-07-20T13:24:14.639Z,27.29
2018-07-20T13:26:43.642Z,27.39
2018-07-20T13:29:13.815Z,27.42
2018-07-20T13:31:42.907Z,27.49
2018-07-20T13:34:11.766Z,27.43
2018-07-20T13:36:41.170Z,27.19
2018-07-20T13:39:11.618Z,27.26
2018-07-20T13:41:41.075Z,27.38
2018-07-20T13:44:10.716Z,27.50
2018-07-20T13:46:39.838Z,27.22
2018-07-20T13:49:08.940Z,27.12
2018-07-20T13:51:38.304Z,27.07
2018-07-20T13:54:07.664Z,27.04
2018-07-20T13:56:36.715Z,27.09
2018-07-20T13:59:06.071Z,27.15
2018-07-20T14:01:35.211Z,27.14
2018-07-20T14:04:04.073Z,27.13
2018-07-20T14:06:33.071Z,27.06
2018-07-20T14:09:01.895Z,27.37
2018-07-20T14:11:30.979Z,27.28
2018-07-20T14:14:00.268Z,27.20
2018-07-20T14:16:29.024Z,27.04
2018-07-20T14:18:57.666Z,26.90
2018-07-20T14:21:26.967Z,26.79
2018-07-20T14:23:55.791Z,26.91
2018-07-20T14:26:24.821Z,26.96
2018-07-20T14:28:54.822Z,26.79
2018-07-20T14:31:24.047Z,26.88
2018-07-20T14:33:53.106Z,26.83
2018-07-20T14:36:22.530Z,26.87
2018-07-20T14:38:51.481Z,27.10
2018-07-20T14:41:20.459Z,26.92
2018-07-20T14:43:49.809Z,26.87
2018-07-20T14:46:19.004Z,26.71
2018-07-20T14:48:47.935Z,26.66
2018-07-20T14:51:16.848Z,26.62
2018-07-20T14:53:46.504Z,26.31
2018-07-20T14:56:15.581Z,26.48
2018-07-20T14:58:45.838Z,26.53
2018-07-20T15:01:15.094Z,26.37
2018-07-20T15:03:44.128Z,26.19
2018-07-20T15:06:13.513Z,26.16
2018-07-20T15:08:42.745Z,26.29
2018-07-20T15:11:11.563Z,26.30
2018-07-20T15:13:40.891Z,26.33
2018-07-20T15:16:09.999Z,26.40
2018-07-20T15:18:39.013Z,26.28
2018-07-20T15:21:08.122Z,26.32
2018-07-20T15:23:36.977Z,26.32
2018-07-20T15:26:05.941Z,26.24
2018-07-20T15:28:35.196Z,26.32
2018-07-20T15:31:04.174Z,26.13
2018-07-20T15:33:33.667Z,25.96
2018-07-20T15:36:02.696Z,25.91
2018-07-20T15:38:31.564Z,25.90
2018-07-20T15:41:00.665Z,25.94
2018-07-20T15:43:29.674Z,25.77
2018-07-20T15:46:05.966Z,25.84
2018-07-20T15:48:27.490Z,25.76
2018-07-20T15:50:56.656Z,25.77
2018-07-20T15:53:40.621Z,25.78
2018-07-20T15:55:54.614Z,25.81
2018-07-20T15:58:23.969Z,25.70
2018-07-20T16:00:52.971Z,25.86
2018-07-20T16:03:23.346Z,25.74
2018-07-20T16:05:52.660Z,25.71
2018-07-20T16:08:22.178Z,25.60
2018-07-20T16:10:51.939Z,25.59
2018-07-20T16:13:20.813Z,25.51
2018-07-20T16:15:50.278Z,25.53
2018-07-20T16:18:19.396Z,25.49
2018-07-20T16:20:48.678Z,25.40
2018-07-20T16:23:17.777Z,25.35
2018-07-20T16:25:46.990Z,25.23
2018-07-20T16:28:16.594Z,25.26
2018-07-20T16:30:45.459Z,25.22
2018-07-20T16:33:14.584Z,25.02
2018-07-20T16:35:43.923Z,25.03
2018-07-20T16:38:13.171Z,24.96
2018-07-20T16:40:42.161Z,24.91
2018-07-20T16:43:11.386Z,24.82
2018-07-20T16:45:40.439Z,24.85
2018-07-20T16:48:09.351Z,24.68
2018-07-20T16:50:38.509Z,24.74
2018-07-20T16:53:07.339Z,24.73
2018-07-20T16:55:36.415Z,24.74
2018-07-20T16:58:05.520Z,24.62
2018-07-20T17:00:35.344Z,24.51
2018-07-20T17:03:04.220Z,24.50
2018-07-20T17:05:33.264Z,24.31
2018-07-20T17:08:02.015Z,24.26
2018-07-20T17:10:31.053Z,24.16
2018-07-20T17:13:01.046Z,24.07
2018-07-20T17:15:30.027Z,24.05
2018-07-20T17:17:59.020Z,24.04
2018-07-20T17:20:28.135Z,24.04
2018-07-20T17:22:57.192Z,23.99
2018-07-20T17:25:26.517Z,24.08
2018-07-20T17:27:55.942Z,23.93
2018-07-20T17:30:25.808Z,23.83
2018-07-20T17:32:54.833Z,23.86
2018-07-20T17:35:24.330Z,23.74
2018-07-20T17:37:53.142Z,23.73
2018-07-20T17:40:22.709Z,23.44
2018-07-20T17:42:51.924Z,23.60
2018-07-20T17:45:21.025Z,23.47
2018-07-20T17:47:49.925Z,23.36
2018-07-20T17:50:19.433Z,23.35
2018-07-20T17:52:48.234Z,23.25
2018-07-20T17:55:17.284Z,23.19
2018-07-20T17:57:46.763Z,23.18
2018-07-20T18:00:15.809Z,23.11
2018-07-20T18:02:44.617Z,23.01
2018-07-20T18:05:14.843Z,22.97
2018-07-20T18:07:44.098Z,22.94
2018-07-20T18:10:13.626Z,22.87
2018-07-20T18:12:43.170Z,22.79
2018-07-20T18:15:12.148Z,22.74
2018-07-20T18:17:41.372Z,22.62
2018-07-20T18:20:11.588Z,22.55
2018-07-20T18:22:42.818Z,22.47
2018-07-20T18:25:13.403Z,22.42
2018-07-20T18:27:42.341Z,22.35
2018-07-20T18:30:11.484Z,22.36
2018-07-20T18:32:41.099Z,22.41
2018-07-20T18:35:10.663Z,22.40
2018-07-20T18:37:40.470Z,22.39
2018-07-20T18:40:09.888Z,22.38
2018-07-20T18:42:39.060Z,22.38
2018-07-20T18:45:08.695Z,22.39
2018-07-20T18:47:38.372Z,22.48
2018-07-20T18:50:08.572Z,22.62
2018-07-20T18:52:37.696Z,22.58
2018-07-20T18:55:06.858Z,22.65
2018-07-20T18:57:35.796Z,22.64
2018-07-20T19:00:05.242Z,22.75
2018-07-20T19:02:34.523Z,22.68
2018-07-20T19:05:03.982Z,22.65
2018-07-20T19:07:33.156Z,22.71
2018-07-20T19:10:02.506Z,22.65
2018-07-20T19:12:33.268Z,22.67
2018-07-20T19:15:02.257Z,22.61
2018-07-20T19:17:32.422Z,22.55
2018-07-20T19:20:01.361Z,22.62
2018-07-20T19:22:30.227Z,22.52
2018-07-20T19:24:59.352Z,22.44
2018-07-20T19:27:28.194Z,22.40
2018-07-20T19:29:58.281Z,22.39
2018-07-20T19:32:28.290Z,22.42
2018-07-20T19:34:57.359Z,22.40
2018-07-20T19:37:26.448Z,22.32
2018-07-20T19:39:55.248Z,22.32
2018-07-20T19:42:24.303Z,22.31
2018-07-20T19:44:53.351Z,22.33
2018-07-20T19:47:22.657Z,22.31
2018-07-20T19:49:51.504Z,22.32
2018-07-20T19:52:20.590Z,22.32
2018-07-20T19:54:50.371Z,22.28
2018-07-20T19:57:19.112Z,22.37
2018-07-20T19:59:47.912Z,22.38
2018-07-20T20:02:17.360Z,22.33
2018-07-20T20:04:46.907Z,22.37
2018-07-20T20:07:15.919Z,22.43
2018-07-20T20:09:45.654Z,22.45
2018-07-20T20:12:15.639Z,22.42
2018-07-20T20:14:44.637Z,22.46
2018-07-20T20:17:14.675Z,22.48
2018-07-20T20:19:43.745Z,22.48
2018-07-20T20:22:12.666Z,22.54
2018-07-20T20:24:41.804Z,22.55
2018-07-20T20:27:10.743Z,22.56
2018-07-20T20:29:39.726Z,22.62
2018-07-20T20:32:08.657Z,22.65
2018-07-20T20:34:38.323Z,22.61
2018-07-20T20:37:07.900Z,22.67
2018-07-20T20:39:37.033Z,22.56
2018-07-20T20:42:06.306Z,22.52
2018-07-20T20:44:35.334Z,22.53
2018-07-20T20:47:05.177Z,22.55
2018-07-20T20:49:34.154Z,22.52
2018-07-20T20:52:04.115Z,22.48
2018-07-20T20:54:33.100Z,22.41
2018-07-20T20:57:02.355Z,22.41
2018-07-20T20:59:31.152Z,22.39
2018-07-20T21:02:00.570Z,22.30
2018-07-20T21:04:30.016Z,22.24
2018-07-20T21:06:59.056Z,22.22
2018-07-20T21:09:28.281Z,22.14
2018-07-20T21:11:57.576Z,22.08
2018-07-20T21:14:26.655Z,22.01
2018-07-20T21:16:56.263Z,21.93
2018-07-20T21:19:25.833Z,21.87
2018-07-20T21:21:55.050Z,21.88
2018-07-20T21:24:23.981Z,21.77
2018-07-20T21:26:53.287Z,21.74
2018-07-20T21:29:22.237Z,21.59
2018-07-20T21:31:50.931Z,21.53
2018-07-20T21:34:19.966Z,21.50
2018-07-20T21:36:49.165Z,21.45
2018-07-20T21:39:18.184Z,21.51
2018-07-20T21:41:47.535Z,21.47
2018-07-20T21:44:16.595Z,21.52
2018-07-20T21:46:45.423Z,21.53
2018-07-20T21:49:14.159Z,21.61
2018-07-20T21:51:43.098Z,21.69
2018-07-20T21:54:13.459Z,21.69
2018-07-20T21:56:42.849Z,21.72
2018-07-20T21:59:11.728Z,21.70
2018-07-20T22:01:40.610Z,21.73
2018-07-20T22:04:10.538Z,21.74
2018-07-20T22:06:39.520Z,21.69
2018-07-20T22:09:10.260Z,21.69
2018-07-20T22:11:39.799Z,21.65
2018-07-20T22:14:09.335Z,21.69
2018-07-20T22:16:38.381Z,21.70
2018-07-20T22:19:07.573Z,21.67
2018-07-20T22:21:36.494Z,21.74
2018-07-20T22:24:05.455Z,21.76
2018-07-20T22:26:35.624Z,21.76
2018-07-20T22:29:05.181Z,21.73
2018-07-20T22:31:34.401Z,21.67
2018-07-20T22:34:03.599Z,21.73
2018-07-20T22:36:32.595Z,21.76
2018-07-20T22:39:08.361Z,21.67
2018-07-20T22:41:37.532Z,21.65
2018-07-20T22:44:06.834Z,21.61
2018-07-20T22:46:35.716Z,21.47
2018-07-20T22:49:05.743Z,21.42
2018-07-20T22:51:34.743Z,21.34
2018-07-20T22:54:03.944Z,21.33
2018-07-20T22:56:33.094Z,21.34
2018-07-20T22:59:02.436Z,21.23
2018-07-20T23:01:31.147Z,21.17
2018-07-20T23:03:59.790Z,21.15
2018-07-20T23:06:29.303Z,21.15
2018-07-20T23:08:58.484Z,21.14
2018-07-20T23:11:27.381Z,21.18
2018-07-20T23:13:57.335Z,21.18
2018-07-20T23:16:25.970Z,21.10
2018-07-20T23:18:55.067Z,21.08
2018-07-20T23:21:27.858Z,21.05
2018-07-20T23:23:57.789Z,20.99
2018-07-20T23:26:27.839Z,20.93
2018-07-20T23:28:56.848Z,20.96
2018-07-20T23:31:25.922Z,20.97
2018-07-20T23:33:55.371Z,20.96
2018-07-20T23:36:24.118Z,20.91
2018-07-20T23:38:52.942Z,20.85
2018-07-20T23:41:22.705Z,20.78
2018-07-20T23:43:51.604Z,20.74
2018-07-20T23:46:21.009Z,20.70
2018-07-20T23:48:50.410Z,20.66
2018-07-20T23:51:19.222Z,20.64
2018-07-20T23:53:48.371Z,20.66
2018-07-20T23:56:17.619Z,20.59
2018-07-20T23:58:46.672Z,20.58
